Howard, Charlene
United StatesWomanBorn 19712013 – 2026Runner id 579029
Events
44
2013 – 2026
Best pace
8.918
km/h · 2018
Best finish
6th
of 50 · 2018
Distance raced
3,298
km · splits not double-counted
Pace over time
km/h · higher is faster
Pace over time: 44 races from 2013 to 2026, ranging from 3.35 to 9.59 kilometres per hour, where higher is faster. A second, age-graded series is drawn above it; the gap between the two is the age credit.
- Actual pace
- Age-graded pace
Results
| Date | Event | Distance | Result | Pace km/h | Placing |
|---|---|---|---|---|---|
| 2013-09-22 | 12h | 52.706 km | 4.392 | 30/37 | |
| 2014-07-20 | 50km | 6:42:41 h | 7.450 | 68/92 | |
| 2014-07-26 | Endless Summer 6-Hour RunUnited States | 6h | 48.148 km | 8.025 | 27/38 |
| 2015-07-18 | Lone Ranger 24 hr Urban UltraUnited States | 24h | 81.690 km | 3.404 | 73/128 |
| 2016-05-28 | 24h | 99.586 km | 4.149 | 10/24 | |
| 2016-09-10 | 100km | 15:58:10 h | 6.262 | 18/32 | |
| 2017-05-27 | Sole Challenge 24 Hour RunUnited States | 24h | 114.524 km | 4.772 | 10/23 |
| 2017-07-22 | Endless Summer 6-Hour RunUnited States | 6h | 47.844 km | 7.974 | 25/37 |
| 2017-09-10 | 100km | 14:50:37 h | 6.737 | 23/35 | |
| 2017-11-18 | 24h | 121.328 km | 5.055 | 21/110 | |
| 2018-01-27 | Eternal Winter 6 Hour RunUnited States | 6h | 53.510 km | 8.918 | 7/19 |
| 2018-03-31 | 50mi | 10:15:31 h | 7.844 | 30/69 | |
| 2018-04-14 | 50km | 6:25:33 h | 7.781 | 12/31 | |
| 2018-04-28 | 24h | 124.321 km | 5.180 | 27/207 | |
| 2018-05-11 | Montour 24 Endurance Runs - 24hrs runUnited States | 24h | 131.177 km | 5.466 | 6/50 |
| 2018-05-27 | 50km | 8:59:00 h | 5.566 | 26/43 | |
| 2018-06-23 | The Great New York 100 km Running ExpositionUnited States | 100km | 13:31:24 h | 7.395 | 6/37 |
| 2018-07-14 | 50km | 7:37:27 h | 6.558 | 43/125 | |
| 2018-07-28 | 6h | 51.016 km | 8.503 | 12/20 | |
| 2018-08-11 | 50km | 7:41:00 h | 6.508 | 21/49 | |
| 2018-09-01 | 71.1mi | 23:39:00 h | 4.838 | 15/42 | |
| 2018-10-13 | 55km | 7:29:02 h | 7.349 | 59/134 | |
| 2018-10-20 | 50km | 5:56:40 h | 8.411 | 10/38 | |
| 2018-11-04 | Potomac Heritage TrailUnited States | 50km | 7:30:00 h | 6.667 | 14/33 |
| 2018-12-29 | 40mi | 10:47:00 h | 5.970 | 39/56 | |
| 2019-02-16 | 100km | 15:09:46 h | 6.595 | 380/516 | |
| 2019-03-23 | HARRC's Tuscarora 50K Trails UltraUnited States | 50km | 7:30:00 h | 6.667 | 30/52 |
| 2019-04-27 | 24h | 80.467 km | 3.353 | 129/193 | |
| 2019-06-01 | 50mi | 9:39:59 h | 8.324 | 25/94 | |
| 2019-07-13 | 50km | 7:05:11 h | 7.056 | 14/63 | |
| 2019-07-20 | HARRC's Conococheague 50K Trails UltraUnited States | 50km | 8:57:00 h | 5.587 | 13/18 |
| 2019-09-14 | 105km | 21:43:09 h | 4.834 | 17/19 | |
| 2020-02-29 | 50km | 8:06:48 h | 6.163 | 123/170 | |
| 2021-04-10 | 50km | 7:44:11 h | 6.463 | 53/70 | |
| 2021-08-14 | 50km | 9:20:00 h | 5.357 | 16/40 | |
| 2021-12-26 | 40mi | 11:18:00 h | 5.697 | 16/19 | |
| 2022-06-03 | 50km | 7:28:57 h | 6.682 | 81/212 | |
| 2022-08-06 | 24h | 102.595 km | 4.275 | 16/28 | |
| 2024-07-06 | 12h | 56.423 km | 4.702 | 22/34 | |
| 2024-07-19 | Vermont 100 km Endurance RaceUnited States | 100km | 17:21:45 h | 5.760 | 72/94 |
| 2024-10-12 | 55km | 8:06:08 h | 6.788 | 52/126 | |
| 2025-03-29 | 24h | 104.607 km | 4.359 | 9/32 | |
| 2026-03-28 | 24h | 83.685 km | 3.487 | 24/37 | |
| 2026-05-05 | 78mi | 28:32:09 h | 4.399 | 56/118 |